Terminal Aerodrome Forecast
Issued by NWS Billings, MT

Home | Current Version | Previous Version | Text Only | Print | Product List | Glossary Off
Versions: 1 2 3 4 5 6 7 8 9 10 11 12 13 14 15 16 17 18 19 20 21 22 23 24 25 26 27 28 29 30 31 32 33 34 35 36 37 38 39 40 41 42 43 44 45 46 47 48 49 50

871
FTUS45 KBYZ 250217 AAA
TAFMLS
TAF AMD
KMLS 250217Z 2502/2524 31015G25KT P6SM -SHRA SCT040 BKN050 OVC100
     FM250400 31016KT P6SM VCSH SCT050 BKN120
     FM250700 30012KT P6SM SCT050 BKN150
     FM251800 30012G20KT P6SM FEW200=

USA.gov is the U.S. government's official web portal to all federal, state and local government web resources and services.